Time;durP1;ratioP1;P1;durP2;ratioP2;P2;SDS_P1;SDS_P2;PMS_P1;PMS_P2;Temp;Humidity;BMP_temperature;BMP_pressure;BME280_temperature;BME280_humidity;BME280_pressure;Samples;Min_cycle;Max_cycle;Signal;HPM_P1;HPM_P2
2023/01/03 00:01:18;;;;;;;;;;;16.30;98.60;;;;;;5055765;28;19961;-88
2023/01/03 00:03:44;;;;;;;;;;;16.20;98.60;;;;;;5056431;28;20177;-88
2023/01/03 00:06:36;;;;;;;;;;;16.20;98.60;;;;;;5056610;28;19995;-88
2023/01/03 00:09:04;;;;;;;;;;;16.20;98.60;;;;;;5052727;28;20012;-88
2023/01/03 00:14:16;;;;;;;;;;;16.20;98.50;;;;;;5073802;28;19946;-87
2023/01/03 00:16:42;;;;;;;;;;;16.20;98.50;;;;;;5055245;28;20261;-88
2023/01/03 00:19:08;;;;;;;;;;;16.20;98.40;;;;;;5055713;28;19951;-87
2023/01/03 00:21:33;;;;;;;;;;;16.20;98.40;;;;;;5055412;28;20233;-88
2023/01/03 00:24:00;;;;;;;;;;;16.20;98.40;;;;;;5055256;28;19908;-88
2023/01/03 00:26:26;;;;;;;;;;;16.20;98.40;;;;;;5053247;28;19908;-88
2023/01/03 00:28:51;;;;;;;;;;;16.20;98.40;;;;;;5055018;28;19909;-88
2023/01/03 00:31:17;;;;;;;;;;;16.20;98.40;;;;;;5054862;28;19909;-87
2023/01/03 00:33:43;;;;;;;;;;;16.20;98.40;;;;;;5071815;28;19945;-87
2023/01/03 00:36:09;;;;;;;;;;;16.20;98.40;;;;;;5054696;28;19974;-88
2023/01/03 00:38:35;;;;;;;;;;;16.20;98.40;;;;;;5072128;28;19999;-88
2023/01/03 00:41:05;;;;;;;;;;;16.20;98.40;;;;;;5054603;28;19936;-88
2023/01/03 00:43:31;;;;;;;;;;;16.20;98.50;;;;;;5055765;28;20230;-88
2023/01/03 00:45:56;;;;;;;;;;;16.20;98.50;;;;;;5060784;28;20337;-87
2023/01/03 00:48:22;;;;;;;;;;;16.20;98.50;;;;;;5060565;28;19921;-87
2023/01/03 00:50:47;;;;;;;;;;;16.20;98.50;;;;;;5060059;28;19913;-87
2023/01/03 00:53:13;;;;;;;;;;;16.20;98.50;;;;;;5059469;28;20155;-87
2023/01/03 00:55:39;;;;;;;;;;;16.20;98.50;;;;;;5059996;28;19951;-87
2023/01/03 00:58:04;;;;;;;;;;;16.10;98.40;;;;;;5059877;28;19908;-88
2023/01/03 01:00:30;;;;;;;;;;;16.10;98.50;;;;;;5059935;28;19916;-88
2023/01/03 01:02:56;;;;;;;;;;;16.10;98.50;;;;;;5058771;28;19913;-88
2023/01/03 01:05:21;;;;;;;;;;;16.10;98.50;;;;;;5058333;28;19951;-88
2023/01/03 01:07:47;;;;;;;;;;;16.10;98.50;;;;;;5060101;28;19986;-88
2023/01/03 01:10:12;;;;;;;;;;;16.10;98.50;;;;;;5076434;28;19919;-88
2023/01/03 01:12:38;;;;;;;;;;;16.10;98.60;;;;;;5077110;28;19920;-88
2023/01/03 01:15:04;;;;;;;;;;;16.10;98.60;;;;;;5046609;28;19908;-88
2023/01/03 01:17:30;;;;;;;;;;;16.10;98.60;;;;;;5055115;28;20229;-88
2023/01/03 01:19:56;;;;;;;;;;;16.10;98.60;;;;;;5057456;28;20580;-88
2023/01/03 01:22:21;;;;;;;;;;;16.10;98.60;;;;;;5057108;28;19993;-88
2023/01/03 01:24:47;;;;;;;;;;;16.00;98.60;;;;;;5056098;28;19958;-88
2023/01/03 01:27:12;;;;;;;;;;;16.00;98.60;;;;;;5057755;28;19962;-87
2023/01/03 01:29:38;;;;;;;;;;;16.00;98.60;;;;;;5076954;28;19909;-88
2023/01/03 01:32:04;;;;;;;;;;;16.00;98.60;;;;;;5059175;28;19951;-88
2023/01/03 01:34:30;;;;;;;;;;;16.00;98.60;;;;;;5058771;28;19914;-88
2023/01/03 01:36:55;;;;;;;;;;;16.00;98.60;;;;;;5058053;28;19991;-88
2023/01/03 01:39:22;;;;;;;;;;;16.00;98.60;;;;;;5059125;28;19959;-88
2023/01/03 01:44:50;;;;;;;;;;;16.00;98.60;;;;;;5077029;28;20248;-87
2023/01/03 01:47:16;;;;;;;;;;;16.00;98.60;;;;;;5075920;28;19908;-88
2023/01/03 01:49:42;;;;;;;;;;;16.00;98.60;;;;;;5057957;28;19955;-88
2023/01/03 01:52:09;;;;;;;;;;;15.90;98.60;;;;;;5056919;28;20045;-88
2023/01/03 01:54:34;;;;;;;;;;;15.90;98.60;;;;;;5056536;28;19908;-88
2023/01/03 01:57:00;;;;;;;;;;;15.90;98.60;;;;;;5056721;28;19919;-88
2023/01/03 01:59:27;;;;;;;;;;;15.90;98.60;;;;;;5060093;28;19919;-87
2023/01/03 02:01:52;;;;;;;;;;;15.90;98.60;;;;;;5059916;28;19920;-88
2023/01/03 02:04:20;;;;;;;;;;;15.90;98.60;;;;;;5059927;28;19916;-88
2023/01/03 02:06:46;;;;;;;;;;;15.90;98.60;;;;;;5059901;28;20168;-88
2023/01/03 02:09:12;;;;;;;;;;;15.90;98.60;;;;;;5057781;28;20176;-87
2023/01/03 02:11:44;;;;;;;;;;;15.90;98.60;;;;;;5059467;28;20012;-87
2023/01/03 02:14:28;;;;;;;;;;;15.90;98.50;;;;;;5077145;28;19913;-87
2023/01/03 02:16:59;;;;;;;;;;;15.90;98.60;;;;;;5058431;28;20011;-87
2023/01/03 02:19:24;;;;;;;;;;;15.90;98.50;;;;;;5058161;28;19909;-88
2023/01/03 02:22:08;;;;;;;;;;;15.90;98.50;;;;;;5075545;28;19919;-88
2023/01/03 02:24:57;;;;;;;;;;;15.80;98.50;;;;;;5076481;28;19908;-88
2023/01/03 02:27:28;;;;;;;;;;;15.80;98.50;;;;;;5058939;28;19919;-88
2023/01/03 02:30:09;;;;;;;;;;;15.80;98.50;;;;;;5058757;28;19909;-88
2023/01/03 02:32:35;;;;;;;;;;;15.80;98.50;;;;;;5075727;28;19912;-88
2023/01/03 02:35:19;;;;;;;;;;;15.80;98.50;;;;;;5058396;28;20205;-88
2023/01/03 02:37:51;;;;;;;;;;;15.80;98.50;;;;;;5058031;28;19913;-88
2023/01/03 02:40:31;;;;;;;;;;;15.80;98.40;;;;;;5057055;28;19916;-88
2023/01/03 02:43:20;;;;;;;;;;;15.80;98.40;;;;;;5052922;28;19908;-88
2023/01/03 02:45:51;;;;;;;;;;;15.80;98.40;;;;;;5056743;28;19909;-88
2023/01/03 02:48:40;;;;;;;;;;;15.80;98.40;;;;;;5073985;28;19908;-88
2023/01/03 02:51:16;;;;;;;;;;;15.80;98.40;;;;;;5048653;28;19930;-87
2023/01/03 02:53:45;;;;;;;;;;;15.80;98.40;;;;;;5056649;28;19920;-87
2023/01/03 02:56:14;;;;;;;;;;;15.80;98.60;;;;;;5057866;28;19974;-87
2023/01/03 02:58:42;;;;;;;;;;;15.80;98.40;;;;;;5059296;28;19999;-87
2023/01/03 03:01:10;;;;;;;;;;;15.80;98.30;;;;;;5076760;28;19909;-86
2023/01/03 03:03:36;;;;;;;;;;;15.80;98.30;;;;;;5057382;28;20274;-87
2023/01/03 03:06:21;;;;;;;;;;;15.80;98.30;;;;;;5056543;28;20170;-87
2023/01/03 03:08:47;;;;;;;;;;;15.70;98.30;;;;;;5057124;28;20198;-87
2023/01/03 03:14:00;;;;;;;;;;;15.70;98.20;;;;;;5074320;28;19924;-87
2023/01/03 03:16:48;;;;;;;;;;;15.80;98.20;;;;;;5074039;28;19908;-88
2023/01/03 03:25:10;;;;;;;;;;;15.70;98.20;;;;;;5074847;28;19939;-87
2023/01/03 03:30:24;;;;;;;;;;;15.70;98.20;;;;;;5074121;28;20209;-87
2023/01/03 03:32:52;;;;;;;;;;;15.70;98.20;;;;;;5058665;28;19923;-88
2023/01/03 03:35:19;;;;;;;;;;;15.70;98.20;;;;;;5058674;28;19916;-87
2023/01/03 03:37:45;;;;;;;;;;;15.70;98.20;;;;;;5059330;28;19956;-87
2023/01/03 03:45:42;;;;;;;;;;;15.60;98.30;;;;;;5075703;28;20359;-88
2023/01/03 03:48:23;;;;;;;;;;;15.60;98.30;;;;;;5058857;28;19908;-88
2023/01/03 03:50:49;;;;;;;;;;;15.60;98.30;;;;;;5056368;28;19908;-88
2023/01/03 03:53:16;;;;;;;;;;;15.50;98.30;;;;;;5057495;28;19977;-88
2023/01/03 03:55:55;;;;;;;;;;;15.60;98.50;;;;;;5056462;28;19956;-88
2023/01/03 03:58:22;;;;;;;;;;;16.20;97.20;;;;;;5056920;28;19919;-88
2023/01/03 04:00:50;;;;;;;;;;;17.40;93.80;;;;;;5057061;28;19944;-88
2023/01/03 04:03:16;;;;;;;;;;;17.70;92.50;;;;;;5056564;28;19917;-88
2023/01/03 04:05:44;;;;;;;;;;;18.00;91.70;;;;;;5057437;28;20066;-88
2023/01/03 04:08:10;;;;;;;;;;;18.10;91.00;;;;;;5057632;28;19908;-88
2023/01/03 04:10:36;;;;;;;;;;;18.30;90.20;;;;;;5057959;28;19963;-88
2023/01/03 04:13:02;;;;;;;;;;;18.60;88.60;;;;;;5056858;28;20012;-88
2023/01/03 04:15:28;;;;;;;;;;;18.80;87.20;;;;;;5057995;28;19954;-88
2023/01/03 04:17:53;;;;;;;;;;;18.90;85.80;;;;;;5059631;28;19915;-88
2023/01/03 04:20:19;;;;;;;;;;;19.00;84.80;;;;;;5061703;28;19917;-88
2023/01/03 04:22:44;;;;;;;;;;;19.10;83.90;;;;;;5078553;28;20271;-88
2023/01/03 04:25:10;;;;;;;;;;;19.10;83.30;;;;;;5060875;28;19931;-88
2023/01/03 04:27:36;;;;;;;;;;;19.10;83.20;;;;;;5061536;28;19908;-88
2023/01/03 04:30:02;;;;;;;;;;;19.10;83.20;;;;;;5061838;28;19954;-87
2023/01/03 04:32:28;;;;;;;;;;;19.00;83.50;;;;;;5061085;28;19974;-88
2023/01/03 04:34:53;;;;;;;;;;;18.90;83.90;;;;;;5061947;28;19909;-87
2023/01/03 04:37:19;;;;;;;;;;;18.80;84.50;;;;;;5060764;28;20267;-87
2023/01/03 04:39:44;;;;;;;;;;;18.70;85.20;;;;;;5061955;28;19912;-86
2023/01/03 04:44:54;;;;;;;;;;;18.50;86.70;;;;;;5077386;28;19970;-87
2023/01/03 04:47:20;;;;;;;;;;;18.40;87.50;;;;;;5062123;28;19909;-87
2023/01/03 04:49:46;;;;;;;;;;;18.30;88.10;;;;;;5060278;28;20163;-87
2023/01/03 04:52:12;;;;;;;;;;;18.20;88.80;;;;;;5078036;28;19920;-87
2023/01/03 04:54:38;;;;;;;;;;;18.10;89.60;;;;;;5060386;28;19916;-87
2023/01/03 04:57:04;;;;;;;;;;;18.00;90.30;;;;;;5058590;28;19938;-88
2023/01/03 04:59:30;;;;;;;;;;;17.90;90.30;;;;;;5059994;28;19916;-87
2023/01/03 05:01:55;;;;;;;;;;;17.80;90.50;;;;;;5060261;28;19916;-86
2023/01/03 05:04:21;;;;;;;;;;;17.80;90.80;;;;;;5076569;28;19932;-88
2023/01/03 05:06:47;;;;;;;;;;;17.70;91.10;;;;;;5058259;28;19961;-88
2023/01/03 05:09:12;;;;;;;;;;;17.60;91.40;;;;;;5058687;28;20236;-88
2023/01/03 05:11:38;;;;;;;;;;;17.50;91.70;;;;;;5057359;28;20229;-88
2023/01/03 05:14:03;;;;;;;;;;;17.40;91.90;;;;;;5057342;28;20240;-88
2023/01/03 05:16:29;;;;;;;;;;;17.30;92.20;;;;;;5057458;28;19909;-88
2023/01/03 05:18:55;;;;;;;;;;;17.20;92.50;;;;;;5058486;28;19920;-87
2023/01/03 05:26:52;;;;;;;;;;;16.90;93.40;;;;;;5076298;28;19935;-88
2023/01/03 05:29:19;;;;;;;;;;;16.90;93.70;;;;;;5058596;28;20259;-88
2023/01/03 05:31:44;;;;;;;;;;;16.80;93.90;;;;;;5059940;28;19920;-88
2023/01/03 05:34:10;;;;;;;;;;;16.70;94.10;;;;;;5059828;28;19912;-87
2023/01/03 05:36:35;;;;;;;;;;;16.60;94.30;;;;;;5077264;28;19909;-88
2023/01/03 05:39:01;;;;;;;;;;;16.60;94.60;;;;;;5076643;28;19935;-88
2023/01/03 05:44:11;;;;;;;;;;;16.40;95.00;;;;;;5074574;28;19920;-88
2023/01/03 05:46:36;;;;;;;;;;;16.40;95.10;;;;;;5056930;28;19909;-88
2023/01/03 05:49:02;;;;;;;;;;;16.40;95.20;;;;;;5056484;28;20048;-88
2023/01/03 05:51:28;;;;;;;;;;;16.40;95.30;;;;;;5056320;28;19948;-88
2023/01/03 05:53:53;;;;;;;;;;;16.40;95.10;;;;;;5055559;28;19912;-88
2023/01/03 05:56:19;;;;;;;;;;;16.50;94.80;;;;;;5055468;28;19916;-88
2023/01/03 05:58:44;;;;;;;;;;;16.60;94.50;;;;;;5056320;28;19908;-88
2023/01/03 06:01:11;;;;;;;;;;;16.70;94.10;;;;;;5058656;28;20201;-88
2023/01/03 06:03:37;;;;;;;;;;;16.90;93.70;;;;;;5056510;28;20187;-88
2023/01/03 06:06:04;;;;;;;;;;;17.00;93.30;;;;;;5056307;28;19923;-88
2023/01/03 06:08:29;;;;;;;;;;;17.20;92.60;;;;;;5073654;28;19912;-88
2023/01/03 06:10:55;;;;;;;;;;;17.50;91.90;;;;;;5055734;28;19974;-88
2023/01/03 06:13:22;;;;;;;;;;;17.60;91.20;;;;;;5056063;28;19974;-88
2023/01/03 06:17:53;;;;;;;;;;;17.70;90.80;;;;;;5073961;28;19908;-88
2023/01/03 06:18:36;;;;;;;;;;;17.70;90.70;;;;;;5073459;28;19916;-88
2023/01/03 06:21:03;;;;;;;;;;;17.70;90.60;;;;;;5054955;28;20263;-88
2023/01/03 06:23:29;;;;;;;;;;;17.70;90.60;;;;;;5053473;28;20290;-88
2023/01/03 06:25:54;;;;;;;;;;;17.60;90.60;;;;;;5054193;28;19919;-87
2023/01/03 06:28:20;;;;;;;;;;;17.60;90.80;;;;;;5053352;28;19917;-88
2023/01/03 06:30:45;;;;;;;;;;;17.50;90.90;;;;;;5054717;28;19909;-88
2023/01/03 06:33:11;;;;;;;;;;;17.40;91.10;;;;;;5064083;28;19912;-86
2023/01/03 06:35:37;;;;;;;;;;;17.30;91.40;;;;;;5044572;28;19973;-86
2023/01/03 06:38:02;;;;;;;;;;;17.30;91.60;;;;;;5038739;28;19939;-86
2023/01/03 06:40:28;;;;;;;;;;;17.20;91.90;;;;;;5047663;28;19908;-85
2023/01/03 06:42:54;;;;;;;;;;;17.10;92.10;;;;;;5054752;28;19908;-85
2023/01/03 06:53:52;;;;;;;;;;;16.70;93.30;;;;;;5072097;28;20812;-86
2023/01/03 06:56:18;;;;;;;;;;;16.60;93.50;;;;;;5054895;28;19909;-86
2023/01/03 06:58:43;;;;;;;;;;;16.60;93.70;;;;;;5051721;28;19908;-87
2023/01/03 07:01:11;;;;;;;;;;;16.50;93.90;;;;;;5053111;28;19931;-86
2023/01/03 07:03:36;;;;;;;;;;;16.50;94.10;;;;;;5053398;28;19942;-86
2023/01/03 07:06:02;;;;;;;;;;;16.40;94.30;;;;;;5051914;28;20140;-86
2023/01/03 07:08:27;;;;;;;;;;;16.40;94.40;;;;;;5052384;28;19909;-86
2023/01/03 07:10:53;;;;;;;;;;;16.30;94.50;;;;;;5069234;28;19912;-86
2023/01/03 07:16:03;;;;;;;;;;;16.30;94.80;;;;;;5070610;28;19978;-86
2023/01/03 07:18:30;;;;;;;;;;;16.30;94.80;;;;;;5075579;28;19912;-86
2023/01/03 07:20:55;;;;;;;;;;;16.30;94.80;;;;;;5055077;28;19909;-86
2023/01/03 07:23:21;;;;;;;;;;;16.40;94.80;;;;;;5053014;28;20326;-86
2023/01/03 07:25:46;;;;;;;;;;;16.40;95.00;;;;;;5052482;28;20080;-86
2023/01/03 07:28:13;;;;;;;;;;;16.50;94.80;;;;;;5050373;28;20385;-86
2023/01/03 07:30:39;;;;;;;;;;;16.60;94.50;;;;;;5051873;28;19915;-86
2023/01/03 07:33:05;;;;;;;;;;;16.70;94.20;;;;;;5052434;28;20014;-86
2023/01/03 07:35:32;;;;;;;;;;;16.80;94.00;;;;;;5052567;28;19912;-86
2023/01/03 07:37:58;;;;;;;;;;;17.00;93.60;;;;;;5069315;28;19937;-86
2023/01/03 07:40:23;;;;;;;;;;;17.10;93.30;;;;;;5050706;28;19909;-86
2023/01/03 07:45:33;;;;;;;;;;;17.20;93.00;;;;;;5068898;28;20204;-86
2023/01/03 07:47:59;;;;;;;;;;;17.30;92.70;;;;;;5052732;28;19909;-86
2023/01/03 07:50:24;;;;;;;;;;;17.30;92.60;;;;;;5050460;28;20120;-86
2023/01/03 07:52:50;;;;;;;;;;;17.30;92.50;;;;;;5051593;28;19912;-86
2023/01/03 07:55:15;;;;;;;;;;;17.30;92.50;;;;;;5070748;28;19938;-86
2023/01/03 07:57:41;;;;;;;;;;;17.20;92.60;;;;;;5072625;28;20047;-86
2023/01/03 08:00:07;;;;;;;;;;;17.20;92.80;;;;;;5055263;28;19909;-86
2023/01/03 08:02:34;;;;;;;;;;;17.10;93.00;;;;;;5055965;28;19909;-86
2023/01/03 08:05:00;;;;;;;;;;;17.00;93.10;;;;;;5056635;28;19923;-86
2023/01/03 08:07:25;;;;;;;;;;;17.00;93.20;;;;;;5072489;28;19908;-86
2023/01/03 08:15:19;;;;;;;;;;;16.90;93.70;;;;;;5073126;28;19935;-87
2023/01/03 08:17:45;;;;;;;;;;;16.80;93.90;;;;;;5056933;28;20217;-86
2023/01/03 08:20:10;;;;;;;;;;;16.70;94.00;;;;;;5055806;28;20007;-86
2023/01/03 08:22:36;;;;;;;;;;;16.70;94.00;;;;;;5055252;28;20039;-86
2023/01/03 08:25:02;;;;;;;;;;;16.70;94.10;;;;;;5055077;28;19919;-87
2023/01/03 08:27:28;;;;;;;;;;;16.70;94.20;;;;;;5057527;28;20256;-86
2023/01/03 08:29:53;;;;;;;;;;;16.60;94.10;;;;;;5073446;28;20099;-87
2023/01/03 08:32:20;;;;;;;;;;;16.60;94.30;;;;;;5056024;28;19966;-87
2023/01/03 08:34:47;;;;;;;;;;;16.60;94.30;;;;;;5054182;28;19909;-87
2023/01/03 08:37:13;;;;;;;;;;;16.60;94.40;;;;;;5055784;28;19916;-87
2023/01/03 08:39:49;;;;;;;;;;;16.50;94.40;;;;;;5071898;28;19909;-87
2023/01/03 08:42:24;;;;;;;;;;;16.50;94.40;;;;;;5042648;28;20299;-86
2023/01/03 08:44:54;;;;;;;;;;;16.60;94.30;;;;;;5072182;28;19918;-86
2023/01/03 08:47:20;;;;;;;;;;;16.60;94.40;;;;;;5053676;28;19963;-87
2023/01/03 08:49:45;;;;;;;;;;;16.60;94.10;;;;;;5071473;28;20120;-87
2023/01/03 08:52:11;;;;;;;;;;;16.70;94.00;;;;;;5055439;28;19909;-86
2023/01/03 08:54:38;;;;;;;;;;;16.60;93.90;;;;;;5070943;28;19999;-86
2023/01/03 08:57:03;;;;;;;;;;;16.60;93.90;;;;;;5072140;28;19913;-87
2023/01/03 08:59:29;;;;;;;;;;;16.70;93.70;;;;;;5070845;28;19915;-86
2023/01/03 09:01:58;;;;;;;;;;;16.70;93.70;;;;;;5053533;28;20011;-86
2023/01/03 09:04:23;;;;;;;;;;;16.70;93.60;;;;;;5052301;28;19950;-86
2023/01/03 09:06:49;;;;;;;;;;;16.70;93.50;;;;;;5052041;28;19913;-86
2023/01/03 09:09:14;;;;;;;;;;;17.20;93.00;;;;;;5069807;28;19982;-86
2023/01/03 09:11:40;;;;;;;;;;;17.60;91.30;;;;;;5066884;28;19908;-86
2023/01/03 09:14:06;;;;;;;;;;;17.60;91.10;;;;;;5051691;28;20446;-86
2023/01/03 09:16:31;;;;;;;;;;;17.50;91.20;;;;;;5051733;28;20067;-86
2023/01/03 09:18:57;;;;;;;;;;;17.50;91.20;;;;;;5053245;28;19915;-87
2023/01/03 09:21:23;;;;;;;;;;;18.10;90.70;;;;;;5053735;28;20306;-87
2023/01/03 09:23:48;;;;;;;;;;;19.10;85.00;;;;;;5054849;28;19920;-86
2023/01/03 09:26:14;;;;;;;;;;;18.80;82.50;;;;;;5052844;28;20028;-87
2023/01/03 09:28:39;;;;;;;;;;;18.60;83.80;;;;;;5053483;28;20258;-86
2023/01/03 09:31:05;;;;;;;;;;;18.50;83.40;;;;;;5051250;28;19908;-87
2023/01/03 09:33:31;;;;;;;;;;;18.50;83.40;;;;;;5051965;28;20237;-86
2023/01/03 09:35:56;;;;;;;;;;;18.50;83.60;;;;;;5051516;28;19909;-86
2023/01/03 09:38:22;;;;;;;;;;;18.50;83.00;;;;;;5048578;28;19919;-87
2023/01/03 09:40:56;;;;;;;;;;;18.60;81.60;;;;;;5064319;28;20144;-86
2023/01/03 09:43:24;;;;;;;;;;;18.50;82.00;;;;;;5048684;28;19909;-86
2023/01/03 09:45:51;;;;;;;;;;;18.40;83.00;;;;;;5049780;28;19921;-86
2023/01/03 09:48:19;;;;;;;;;;;18.40;83.20;;;;;;5068760;28;20267;-88
2023/01/03 09:50:45;;;;;;;;;;;18.20;83.80;;;;;;5053362;28;19972;-88
2023/01/03 10:04:39;;;;;;;;;;;17.70;87.10;;;;;;5069707;28;19982;-86
2023/01/03 10:07:07;;;;;;;;;;;17.70;87.40;;;;;;5050504;28;20241;-86
2023/01/03 10:09:33;;;;;;;;;;;17.70;86.80;;;;;;5068938;28;20267;-86
2023/01/03 10:12:04;;;;;;;;;;;17.80;86.60;;;;;;5049598;28;20266;-86
2023/01/03 10:14:49;;;;;;;;;;;17.80;86.30;;;;;;5047658;28;19923;-87
2023/01/03 10:17:14;;;;;;;;;;;17.80;85.80;;;;;;5049047;28;19934;-87
2023/01/03 10:19:46;;;;;;;;;;;17.90;85.30;;;;;;5050386;28;20302;-86
2023/01/03 10:22:13;;;;;;;;;;;17.90;85.20;;;;;;5068988;28;19915;-86
2023/01/03 10:24:44;;;;;;;;;;;17.90;84.90;;;;;;5050988;28;19916;-86
2023/01/03 10:27:13;;;;;;;;;;;17.80;85.00;;;;;;5067855;28;19994;-87
2023/01/03 10:29:39;;;;;;;;;;;17.70;85.60;;;;;;5049639;28;19964;-87
2023/01/03 10:32:31;;;;;;;;;;;17.60;86.10;;;;;;5049857;28;19914;-87
2023/01/03 10:35:14;;;;;;;;;;;17.60;86.60;;;;;;5048311;28;19913;-87
2023/01/03 10:37:40;;;;;;;;;;;17.50;87.00;;;;;;5069610;28;19935;-87
2023/01/03 10:40:06;;;;;;;;;;;17.50;87.00;;;;;;5051596;28;20168;-87
2023/01/03 10:42:33;;;;;;;;;;;17.50;87.20;;;;;;5053538;28;19909;-87
2023/01/03 10:45:01;;;;;;;;;;;17.50;87.30;;;;;;5052486;28;19918;-87
2023/01/03 10:47:26;;;;;;;;;;;17.50;87.50;;;;;;5052042;28;19909;-86
2023/01/03 10:49:59;;;;;;;;;;;17.40;87.60;;;;;;5060082;28;20008;-87
2023/01/03 10:52:29;;;;;;;;;;;17.40;87.90;;;;;;5051082;28;20186;-87
2023/01/03 10:54:58;;;;;;;;;;;17.40;88.30;;;;;;5049878;28;19970;-86
2023/01/03 10:57:38;;;;;;;;;;;17.30;88.60;;;;;;5050441;28;19912;-87
2023/01/03 11:00:27;;;;;;;;;;;17.30;89.20;;;;;;5050369;28;19922;-86
2023/01/03 11:02:53;;;;;;;;;;;17.20;89.80;;;;;;5039782;28;20240;-86
2023/01/03 11:05:21;;;;;;;;;;;17.10;90.10;;;;;;5047276;28;19966;-87
2023/01/03 11:07:58;;;;;;;;;;;17.10;90.30;;;;;;5046422;28;19958;-86
2023/01/03 11:10:28;;;;;;;;;;;17.10;90.50;;;;;;5045113;28;20080;-86
2023/01/03 11:12:53;;;;;;;;;;;17.00;90.70;;;;;;5064760;28;20307;-86
2023/01/03 11:15:19;;;;;;;;;;;17.00;90.80;;;;;;5065641;28;20018;-87
2023/01/03 11:17:52;;;;;;;;;;;17.00;90.90;;;;;;5066393;28;19910;-87
2023/01/03 11:20:18;;;;;;;;;;;17.00;90.90;;;;;;5066253;28;19970;-87
2023/01/03 11:22:52;;;;;;;;;;;17.00;90.90;;;;;;5065407;28;19948;-87
2023/01/03 11:25:37;;;;;;;;;;;17.00;90.90;;;;;;5020262;28;19908;-87
2023/01/03 11:28:11;;;;;;;;;;;17.00;90.90;;;;;;5047856;28;20202;-87
2023/01/03 11:30:40;;;;;;;;;;;17.10;90.80;;;;;;5045766;28;20048;-87
2023/01/03 11:33:15;;;;;;;;;;;17.20;90.70;;;;;;5047521;28;20266;-87
2023/01/03 11:35:59;;;;;;;;;;;17.20;90.40;;;;;;5047342;28;19948;-87
2023/01/03 11:38:44;;;;;;;;;;;17.40;90.00;;;;;;5048523;28;20007;-87
2023/01/03 11:41:22;;;;;;;;;;;17.60;88.90;;;;;;5048018;28;20290;-86
2023/01/03 11:43:54;;;;;;;;;;;17.80;87.60;;;;;;5048336;28;20108;-86
2023/01/03 11:46:27;;;;;;;;;;;17.90;86.20;;;;;;5067155;28;20142;-87
2023/01/03 11:49:08;;;;;;;;;;;18.10;84.90;;;;;;5049167;28;19920;-87
2023/01/03 11:51:52;;;;;;;;;;;18.20;84.30;;;;;;5066428;28;20087;-86
2023/01/03 11:54:37;;;;;;;;;;;18.20;83.50;;;;;;5045470;28;20174;-86
2023/01/03 11:57:06;;;;;;;;;;;18.30;83.40;;;;;;5048349;28;20109;-86
2023/01/03 11:59:51;;;;;;;;;;;18.20;83.20;;;;;;5047992;28;20057;-87
2023/01/03 12:02:42;;;;;;;;;;;18.20;83.40;;;;;;5066459;28;20436;-87
2023/01/03 12:05:17;;;;;;;;;;;18.10;83.80;;;;;;5029143;28;19916;-86
2023/01/03 12:07:45;;;;;;;;;;;18.00;84.70;;;;;;5028955;28;19928;-86
2023/01/03 12:10:23;;;;;;;;;;;17.80;85.40;;;;;;5030210;28;20379;-87
2023/01/03 12:12:58;;;;;;;;;;;17.80;86.10;;;;;;5027829;28;20090;-86
2023/01/03 12:15:26;;;;;;;;;;;17.70;86.80;;;;;;5026776;28;19967;-86
2023/01/03 12:18:05;;;;;;;;;;;17.60;87.60;;;;;;5044848;28;20000;-86
2023/01/03 12:20:34;;;;;;;;;;;17.50;88.30;;;;;;5043517;28;19959;-86
2023/01/03 12:23:05;;;;;;;;;;;17.40;88.80;;;;;;5024838;28;20257;-86
2023/01/03 12:25:39;;;;;;;;;;;17.30;89.40;;;;;;5044310;28;19938;-86
2023/01/03 12:28:10;;;;;;;;;;;17.30;89.90;;;;;;5046268;28;19949;-87
2023/01/03 12:30:44;;;;;;;;;;;17.30;90.10;;;;;;5026776;28;19905;-86
2023/01/03 12:33:17;;;;;;;;;;;17.20;90.30;;;;;;5027271;28;20058;-86
2023/01/03 12:35:46;;;;;;;;;;;17.10;90.50;;;;;;5027123;28;19909;-86
2023/01/03 12:38:12;;;;;;;;;;;17.10;90.80;;;;;;5047579;28;19919;-86
2023/01/03 12:40:42;;;;;;;;;;;17.00;91.00;;;;;;5047218;28;19909;-86
2023/01/03 12:43:07;;;;;;;;;;;17.00;91.20;;;;;;5031932;28;20088;-86
2023/01/03 12:45:46;;;;;;;;;;;16.90;91.50;;;;;;5049723;28;20191;-86
2023/01/03 12:48:12;;;;;;;;;;;16.90;91.40;;;;;;5031334;28;19941;-86
2023/01/03 12:50:44;;;;;;;;;;;16.90;91.40;;;;;;5030546;28;19959;-86
2023/01/03 12:53:30;;;;;;;;;;;16.80;92.30;;;;;;5050493;28;19921;-86
2023/01/03 12:56:15;;;;;;;;;;;16.90;92.30;;;;;;5023165;28;19908;-86
2023/01/03 12:58:43;;;;;;;;;;;16.90;92.20;;;;;;5049915;28;19963;-86
2023/01/03 13:01:14;;;;;;;;;;;16.90;92.10;;;;;;5032180;28;19985;-86
2023/01/03 13:03:43;;;;;;;;;;;16.90;92.10;;;;;;5040774;28;20024;-86
2023/01/03 13:06:22;;;;;;;;;;;16.90;92.10;;;;;;5054932;28;20105;-86
2023/01/03 13:09:03;;;;;;;;;;;16.90;92.00;;;;;;5051334;28;19985;-86
2023/01/03 13:11:38;;;;;;;;;;;17.00;91.90;;;;;;5054159;28;19909;-86
2023/01/03 13:14:05;;;;;;;;;;;17.00;91.80;;;;;;5051402;28;20010;-86
2023/01/03 13:16:37;;;;;;;;;;;17.10;91.60;;;;;;5051476;28;19920;-86
2023/01/03 13:19:21;;;;;;;;;;;17.20;91.40;;;;;;5068476;28;20168;-86
2023/01/03 13:21:52;;;;;;;;;;;17.20;91.20;;;;;;5068099;28;19935;-86
2023/01/03 13:24:37;;;;;;;;;;;17.30;91.10;;;;;;5050678;28;19919;-86
2023/01/03 13:27:18;;;;;;;;;;;17.30;91.00;;;;;;5048724;28;20022;-86
2023/01/03 13:29:52;;;;;;;;;;;17.40;90.90;;;;;;5068524;28;19908;-86
2023/01/03 13:32:21;;;;;;;;;;;17.40;90.90;;;;;;5050944;28;19943;-86
2023/01/03 13:35:07;;;;;;;;;;;17.40;91.00;;;;;;5050218;28;20253;-86
2023/01/03 13:37:43;;;;;;;;;;;17.40;91.10;;;;;;5058725;28;19916;-86
2023/01/03 13:40:18;;;;;;;;;;;17.40;91.20;;;;;;5051934;28;19918;-86
2023/01/03 13:45:57;;;;;;;;;;;17.30;91.30;;;;;;5059053;28;19920;-86
2023/01/03 13:48:30;;;;;;;;;;;17.30;91.50;;;;;;5065541;28;19919;-87
2023/01/03 13:51:16;;;;;;;;;;;17.30;91.70;;;;;;5051608;28;19915;-86
2023/01/03 13:54:01;;;;;;;;;;;17.20;91.70;;;;;;5019959;28;19990;-86
2023/01/03 13:56:29;;;;;;;;;;;17.20;91.90;;;;;;5049161;28;19952;-86
2023/01/03 13:59:13;;;;;;;;;;;17.20;92.00;;;;;;5052323;28;20290;-87
2023/01/03 14:01:54;;;;;;;;;;;17.10;92.10;;;;;;5053058;28;19909;-87
2023/01/03 14:04:19;;;;;;;;;;;17.10;92.30;;;;;;5052272;28;19964;-87
2023/01/03 14:07:05;;;;;;;;;;;17.00;92.40;;;;;;5049918;28;20123;-86
2023/01/03 14:09:53;;;;;;;;;;;17.00;92.50;;;;;;5067066;28;19912;-86
2023/01/03 14:12:26;;;;;;;;;;;16.90;92.60;;;;;;5051485;28;19909;-85
2023/01/03 14:14:53;;;;;;;;;;;16.90;92.70;;;;;;5052308;28;19913;-86
2023/01/03 14:17:22;;;;;;;;;;;16.90;92.90;;;;;;5053685;28;19916;-87
2023/01/03 14:19:53;;;;;;;;;;;16.90;92.90;;;;;;5054010;28;20015;-86
2023/01/03 14:22:21;;;;;;;;;;;16.80;93.00;;;;;;5071614;28;20407;-86
2023/01/03 14:24:49;;;;;;;;;;;16.80;93.10;;;;;;5068610;28;19913;-86
2023/01/03 14:27:16;;;;;;;;;;;16.80;93.20;;;;;;5071152;28;20025;-86
2023/01/03 14:29:42;;;;;;;;;;;16.80;93.30;;;;;;5059874;28;19904;-87
2023/01/03 14:32:27;;;;;;;;;;;16.70;93.30;;;;;;5053323;28;20012;-86
2023/01/03 14:34:53;;;;;;;;;;;16.70;93.40;;;;;;5051229;28;20200;-86
2023/01/03 14:37:21;;;;;;;;;;;16.70;93.50;;;;;;5052105;28;19909;-86
2023/01/03 14:39:57;;;;;;;;;;;16.70;93.60;;;;;;5048916;28;20185;-86
2023/01/03 14:42:23;;;;;;;;;;;16.60;93.60;;;;;;5050068;28;20037;-86
2023/01/03 14:44:50;;;;;;;;;;;16.60;93.70;;;;;;5049483;28;19981;-87
2023/01/03 14:47:16;;;;;;;;;;;16.60;93.70;;;;;;5050835;28;19908;-86
2023/01/03 14:49:46;;;;;;;;;;;16.60;93.80;;;;;;5051055;28;19912;-86
2023/01/03 14:52:27;;;;;;;;;;;16.60;93.80;;;;;;5048147;28;20011;-86
2023/01/03 14:54:53;;;;;;;;;;;16.60;93.80;;;;;;5052465;28;20112;-86
2023/01/03 14:57:22;;;;;;;;;;;16.50;93.90;;;;;;5067562;28;20019;-86
2023/01/03 14:59:50;;;;;;;;;;;16.50;94.00;;;;;;5049591;28;19916;-86
2023/01/03 15:02:16;;;;;;;;;;;16.50;94.00;;;;;;5048683;28;19970;-86
2023/01/03 15:04:43;;;;;;;;;;;16.40;94.10;;;;;;5049502;28;19924;-86
2023/01/03 15:07:28;;;;;;;;;;;16.40;94.20;;;;;;5068605;28;19939;-86
2023/01/03 15:10:12;;;;;;;;;;;16.40;94.30;;;;;;5051036;28;19934;-86
2023/01/03 15:12:39;;;;;;;;;;;16.40;94.40;;;;;;5050338;28;19954;-86
2023/01/03 15:15:07;;;;;;;;;;;16.50;94.40;;;;;;5049034;28;20096;-86
2023/01/03 15:17:40;;;;;;;;;;;16.60;94.20;;;;;;5050548;28;19919;-86
2023/01/03 15:20:07;;;;;;;;;;;16.60;93.90;;;;;;5047775;28;19978;-86
2023/01/03 15:22:38;;;;;;;;;;;16.70;93.70;;;;;;5046359;28;19958;-86
2023/01/03 15:25:31;;;;;;;;;;;16.90;93.30;;;;;;5047518;28;19908;-86
2023/01/03 15:28:10;;;;;;;;;;;17.00;93.00;;;;;;5048646;28;19915;-86
2023/01/03 15:30:44;;;;;;;;;;;17.10;92.70;;;;;;5048560;28;20188;-86
2023/01/03 15:33:32;;;;;;;;;;;17.10;92.40;;;;;;5053338;28;19919;-88
2023/01/03 15:36:03;;;;;;;;;;;17.20;92.30;;;;;;5069504;28;19908;-86
2023/01/03 15:38:43;;;;;;;;;;;17.20;92.20;;;;;;5052745;28;19909;-86